sensor_id;sensor_type;location;lat;lon;timestamp;P1;durP1;ratioP1;P2;durP2;ratioP2
3487;SDS011;38546;48.170;11.724;2023-05-16T00:00:20;7.27;;;5.60;;
3487;SDS011;38546;48.170;11.724;2023-05-16T00:03:11;7.90;;;6.13;;
3487;SDS011;38546;48.170;11.724;2023-05-16T00:06:00;7.77;;;6.67;;
3487;SDS011;38546;48.170;11.724;2023-05-16T00:08:49;8.07;;;6.40;;
3487;SDS011;38546;48.170;11.724;2023-05-16T00:11:39;6.70;;;6.00;;
3487;SDS011;38546;48.170;11.724;2023-05-16T00:14:28;7.17;;;5.73;;
3487;SDS011;38546;48.170;11.724;2023-05-16T00:17:18;9.47;;;6.70;;
3487;SDS011;38546;48.170;11.724;2023-05-16T00:20:07;8.07;;;6.40;;
3487;SDS011;38546;48.170;11.724;2023-05-16T00:23:01;13.17;;;6.27;;
3487;SDS011;38546;48.170;11.724;2023-05-16T00:25:51;11.43;;;7.23;;
3487;SDS011;38546;48.170;11.724;2023-05-16T00:28:39;6.43;;;5.70;;
3487;SDS011;38546;48.170;11.724;2023-05-16T00:31:28;8.80;;;6.43;;
3487;SDS011;38546;48.170;11.724;2023-05-16T00:34:18;6.67;;;6.00;;
3487;SDS011;38546;48.170;11.724;2023-05-16T00:37:08;7.57;;;6.83;;
3487;SDS011;38546;48.170;11.724;2023-05-16T00:39:58;8.27;;;6.10;;
3487;SDS011;38546;48.170;11.724;2023-05-16T00:42:47;7.77;;;6.60;;
3487;SDS011;38546;48.170;11.724;2023-05-16T00:45:36;7.70;;;6.90;;
3487;SDS011;38546;48.170;11.724;2023-05-16T00:48:25;9.33;;;6.07;;
3487;SDS011;38546;48.170;11.724;2023-05-16T00:51:15;7.10;;;6.00;;
3487;SDS011;38546;48.170;11.724;2023-05-16T00:54:05;7.83;;;6.50;;
3487;SDS011;38546;48.170;11.724;2023-05-16T00:56:56;8.30;;;5.87;;
3487;SDS011;38546;48.170;11.724;2023-05-16T00:59:45;13.77;;;6.23;;
3487;SDS011;38546;48.170;11.724;2023-05-16T01:02:35;7.80;;;6.20;;
3487;SDS011;38546;48.170;11.724;2023-05-16T01:05:25;7.60;;;6.50;;
3487;SDS011;38546;48.170;11.724;2023-05-16T01:08:13;6.70;;;5.60;;
3487;SDS011;38546;48.170;11.724;2023-05-16T01:11:25;6.07;;;5.47;;
3487;SDS011;38546;48.170;11.724;2023-05-16T01:15:18;8.50;;;6.30;;
3487;SDS011;38546;48.170;11.724;2023-05-16T01:18:29;7.80;;;6.50;;
3487;SDS011;38546;48.170;11.724;2023-05-16T01:22:02;8.70;;;7.00;;
3487;SDS011;38546;48.170;11.724;2023-05-16T01:26:26;13.80;;;7.00;;
3487;SDS011;38546;48.170;11.724;2023-05-16T01:29:16;11.03;;;7.73;;
3487;SDS011;38546;48.170;11.724;2023-05-16T01:32:05;11.60;;;7.83;;
3487;SDS011;38546;48.170;11.724;2023-05-16T01:34:55;9.40;;;7.60;;
3487;SDS011;38546;48.170;11.724;2023-05-16T01:37:46;8.20;;;6.77;;
3487;SDS011;38546;48.170;11.724;2023-05-16T01:40:44;11.63;;;7.73;;
3487;SDS011;38546;48.170;11.724;2023-05-16T01:43:55;10.03;;;8.00;;
3487;SDS011;38546;48.170;11.724;2023-05-16T01:46:48;11.23;;;8.80;;
3487;SDS011;38546;48.170;11.724;2023-05-16T01:50:02;10.80;;;8.20;;
3487;SDS011;38546;48.170;11.724;2023-05-16T01:52:59;8.37;;;7.10;;
3487;SDS011;38546;48.170;11.724;2023-05-16T01:55:56;11.30;;;7.80;;
3487;SDS011;38546;48.170;11.724;2023-05-16T01:58:48;9.50;;;7.90;;
3487;SDS011;38546;48.170;11.724;2023-05-16T02:01:38;10.23;;;7.17;;
3487;SDS011;38546;48.170;11.724;2023-05-16T02:04:28;13.07;;;8.90;;
3487;SDS011;38546;48.170;11.724;2023-05-16T02:07:17;12.33;;;7.97;;
3487;SDS011;38546;48.170;11.724;2023-05-16T02:10:07;9.57;;;7.13;;
3487;SDS011;38546;48.170;11.724;2023-05-16T02:12:57;8.90;;;6.83;;
3487;SDS011;38546;48.170;11.724;2023-05-16T02:15:46;11.80;;;7.50;;
3487;SDS011;38546;48.170;11.724;2023-05-16T02:18:35;12.27;;;9.43;;
3487;SDS011;38546;48.170;11.724;2023-05-16T02:21:24;12.47;;;8.03;;
3487;SDS011;38546;48.170;11.724;2023-05-16T02:24:13;8.77;;;6.97;;
3487;SDS011;38546;48.170;11.724;2023-05-16T02:27:03;9.97;;;7.90;;
3487;SDS011;38546;48.170;11.724;2023-05-16T02:29:52;11.47;;;8.90;;
3487;SDS011;38546;48.170;11.724;2023-05-16T02:32:41;12.70;;;9.27;;
3487;SDS011;38546;48.170;11.724;2023-05-16T02:35:32;13.60;;;9.50;;
3487;SDS011;38546;48.170;11.724;2023-05-16T02:38:21;9.97;;;7.77;;
3487;SDS011;38546;48.170;11.724;2023-05-16T02:41:10;8.63;;;6.90;;
3487;SDS011;38546;48.170;11.724;2023-05-16T02:43:59;13.00;;;8.83;;
3487;SDS011;38546;48.170;11.724;2023-05-16T02:46:48;11.10;;;8.77;;
3487;SDS011;38546;48.170;11.724;2023-05-16T02:49:38;15.93;;;8.67;;
3487;SDS011;38546;48.170;11.724;2023-05-16T02:52:27;12.70;;;8.80;;
3487;SDS011;38546;48.170;11.724;2023-05-16T02:55:15;14.13;;;9.30;;
3487;SDS011;38546;48.170;11.724;2023-05-16T02:58:04;16.20;;;9.77;;
3487;SDS011;38546;48.170;11.724;2023-05-16T03:00:53;13.07;;;9.43;;
3487;SDS011;38546;48.170;11.724;2023-05-16T03:03:42;9.73;;;8.73;;
3487;SDS011;38546;48.170;11.724;2023-05-16T03:06:32;13.20;;;9.40;;
3487;SDS011;38546;48.170;11.724;2023-05-16T03:09:21;10.27;;;8.60;;
3487;SDS011;38546;48.170;11.724;2023-05-16T03:12:10;10.30;;;8.20;;
3487;SDS011;38546;48.170;11.724;2023-05-16T03:15:00;14.37;;;8.67;;
3487;SDS011;38546;48.170;11.724;2023-05-16T03:17:49;13.93;;;9.47;;
3487;SDS011;38546;48.170;11.724;2023-05-16T03:20:39;13.00;;;8.83;;
3487;SDS011;38546;48.170;11.724;2023-05-16T03:23:27;13.57;;;8.00;;
3487;SDS011;38546;48.170;11.724;2023-05-16T03:26:17;12.10;;;9.00;;
3487;SDS011;38546;48.170;11.724;2023-05-16T03:29:06;13.30;;;8.90;;
3487;SDS011;38546;48.170;11.724;2023-05-16T03:31:55;13.70;;;10.20;;
3487;SDS011;38546;48.170;11.724;2023-05-16T03:34:45;16.30;;;9.93;;
3487;SDS011;38546;48.170;11.724;2023-05-16T03:37:34;12.20;;;9.53;;
3487;SDS011;38546;48.170;11.724;2023-05-16T03:40:23;13.80;;;9.30;;
3487;SDS011;38546;48.170;11.724;2023-05-16T03:43:12;15.20;;;10.33;;
3487;SDS011;38546;48.170;11.724;2023-05-16T03:46:01;15.40;;;9.93;;
3487;SDS011;38546;48.170;11.724;2023-05-16T03:48:50;14.80;;;10.30;;
3487;SDS011;38546;48.170;11.724;2023-05-16T03:51:39;14.67;;;9.40;;
3487;SDS011;38546;48.170;11.724;2023-05-16T03:54:28;13.87;;;9.80;;
3487;SDS011;38546;48.170;11.724;2023-05-16T03:57:18;16.13;;;10.93;;
3487;SDS011;38546;48.170;11.724;2023-05-16T04:00:08;16.37;;;10.10;;
3487;SDS011;38546;48.170;11.724;2023-05-16T04:02:59;16.40;;;11.13;;
3487;SDS011;38546;48.170;11.724;2023-05-16T04:05:48;12.90;;;9.27;;
3487;SDS011;38546;48.170;11.724;2023-05-16T04:08:38;15.17;;;10.50;;
3487;SDS011;38546;48.170;11.724;2023-05-16T04:11:28;17.27;;;10.20;;
3487;SDS011;38546;48.170;11.724;2023-05-16T04:14:17;15.37;;;10.87;;
3487;SDS011;38546;48.170;11.724;2023-05-16T04:17:06;15.30;;;9.73;;
3487;SDS011;38546;48.170;11.724;2023-05-16T04:19:54;17.80;;;11.27;;
3487;SDS011;38546;48.170;11.724;2023-05-16T04:22:45;17.43;;;9.87;;
3487;SDS011;38546;48.170;11.724;2023-05-16T04:25:35;13.17;;;9.07;;
3487;SDS011;38546;48.170;11.724;2023-05-16T04:28:25;14.87;;;10.30;;
3487;SDS011;38546;48.170;11.724;2023-05-16T04:31:14;16.37;;;11.63;;
3487;SDS011;38546;48.170;11.724;2023-05-16T04:34:03;19.70;;;11.53;;
3487;SDS011;38546;48.170;11.724;2023-05-16T04:36:53;15.37;;;11.20;;
3487;SDS011;38546;48.170;11.724;2023-05-16T04:39:43;17.00;;;11.33;;
3487;SDS011;38546;48.170;11.724;2023-05-16T04:42:32;18.87;;;12.33;;
3487;SDS011;38546;48.170;11.724;2023-05-16T04:45:22;17.60;;;10.37;;
3487;SDS011;38546;48.170;11.724;2023-05-16T04:48:11;19.47;;;12.97;;
3487;SDS011;38546;48.170;11.724;2023-05-16T04:51:01;19.47;;;11.57;;
3487;SDS011;38546;48.170;11.724;2023-05-16T04:53:50;19.10;;;12.87;;
3487;SDS011;38546;48.170;11.724;2023-05-16T04:56:40;14.60;;;10.80;;
3487;SDS011;38546;48.170;11.724;2023-05-16T04:59:29;18.70;;;12.03;;
3487;SDS011;38546;48.170;11.724;2023-05-16T05:02:18;20.33;;;10.53;;
3487;SDS011;38546;48.170;11.724;2023-05-16T05:05:08;17.33;;;11.53;;
3487;SDS011;38546;48.170;11.724;2023-05-16T05:07:57;15.10;;;11.00;;
3487;SDS011;38546;48.170;11.724;2023-05-16T05:10:48;18.60;;;11.83;;
3487;SDS011;38546;48.170;11.724;2023-05-16T05:13:37;17.17;;;12.50;;
3487;SDS011;38546;48.170;11.724;2023-05-16T05:16:26;18.67;;;13.00;;
3487;SDS011;38546;48.170;11.724;2023-05-16T05:19:15;25.67;;;13.50;;
3487;SDS011;38546;48.170;11.724;2023-05-16T05:22:05;21.17;;;12.87;;
3487;SDS011;38546;48.170;11.724;2023-05-16T05:24:54;21.37;;;13.33;;
3487;SDS011;38546;48.170;11.724;2023-05-16T05:27:43;18.93;;;12.43;;
3487;SDS011;38546;48.170;11.724;2023-05-16T05:30:32;17.63;;;11.93;;
3487;SDS011;38546;48.170;11.724;2023-05-16T05:33:25;25.93;;;14.40;;
3487;SDS011;38546;48.170;11.724;2023-05-16T05:36:16;20.10;;;13.83;;
3487;SDS011;38546;48.170;11.724;2023-05-16T05:39:06;23.53;;;12.60;;
3487;SDS011;38546;48.170;11.724;2023-05-16T05:41:55;19.57;;;13.13;;
3487;SDS011;38546;48.170;11.724;2023-05-16T05:44:43;18.23;;;12.20;;
3487;SDS011;38546;48.170;11.724;2023-05-16T05:47:32;23.83;;;14.57;;
3487;SDS011;38546;48.170;11.724;2023-05-16T05:50:22;18.53;;;12.73;;
3487;SDS011;38546;48.170;11.724;2023-05-16T05:53:11;20.30;;;13.13;;
3487;SDS011;38546;48.170;11.724;2023-05-16T05:56:01;22.17;;;13.00;;
3487;SDS011;38546;48.170;11.724;2023-05-16T05:58:50;23.13;;;13.67;;
3487;SDS011;38546;48.170;11.724;2023-05-16T06:01:39;19.13;;;12.80;;
3487;SDS011;38546;48.170;11.724;2023-05-16T06:04:28;17.40;;;11.73;;
3487;SDS011;38546;48.170;11.724;2023-05-16T06:07:17;20.40;;;12.33;;
3487;SDS011;38546;48.170;11.724;2023-05-16T06:10:07;30.53;;;12.73;;
3487;SDS011;38546;48.170;11.724;2023-05-16T06:12:56;18.83;;;13.43;;
3487;SDS011;38546;48.170;11.724;2023-05-16T06:15:52;20.70;;;13.57;;
3487;SDS011;38546;48.170;11.724;2023-05-16T06:18:41;25.37;;;13.30;;
3487;SDS011;38546;48.170;11.724;2023-05-16T06:21:31;21.20;;;13.07;;
3487;SDS011;38546;48.170;11.724;2023-05-16T06:24:20;21.60;;;13.60;;
3487;SDS011;38546;48.170;11.724;2023-05-16T06:27:10;18.20;;;13.10;;
3487;SDS011;38546;48.170;11.724;2023-05-16T06:29:59;21.37;;;13.37;;
3487;SDS011;38546;48.170;11.724;2023-05-16T06:32:48;20.93;;;13.87;;
3487;SDS011;38546;48.170;11.724;2023-05-16T06:35:38;18.83;;;13.73;;
3487;SDS011;38546;48.170;11.724;2023-05-16T06:38:27;19.07;;;14.27;;
3487;SDS011;38546;48.170;11.724;2023-05-16T06:41:16;20.23;;;13.43;;
3487;SDS011;38546;48.170;11.724;2023-05-16T06:44:05;20.63;;;12.90;;
3487;SDS011;38546;48.170;11.724;2023-05-16T06:46:54;19.50;;;13.43;;
3487;SDS011;38546;48.170;11.724;2023-05-16T06:49:43;17.70;;;12.60;;
3487;SDS011;38546;48.170;11.724;2023-05-16T06:52:32;17.13;;;11.87;;
3487;SDS011;38546;48.170;11.724;2023-05-16T06:55:20;17.80;;;12.30;;
3487;SDS011;38546;48.170;11.724;2023-05-16T06:58:10;18.23;;;13.07;;
3487;SDS011;38546;48.170;11.724;2023-05-16T07:00:59;19.43;;;12.00;;
3487;SDS011;38546;48.170;11.724;2023-05-16T07:03:48;18.00;;;12.70;;
3487;SDS011;38546;48.170;11.724;2023-05-16T07:06:40;19.20;;;13.17;;
3487;SDS011;38546;48.170;11.724;2023-05-16T07:09:29;20.50;;;13.80;;
3487;SDS011;38546;48.170;11.724;2023-05-16T07:12:18;24.33;;;15.03;;
3487;SDS011;38546;48.170;11.724;2023-05-16T07:15:08;21.40;;;14.20;;
3487;SDS011;38546;48.170;11.724;2023-05-16T07:17:58;28.63;;;15.80;;
3487;SDS011;38546;48.170;11.724;2023-05-16T07:20:47;24.60;;;13.23;;
3487;SDS011;38546;48.170;11.724;2023-05-16T07:23:36;21.17;;;13.20;;
3487;SDS011;38546;48.170;11.724;2023-05-16T07:26:24;33.30;;;16.50;;
3487;SDS011;38546;48.170;11.724;2023-05-16T07:29:14;21.30;;;13.30;;
3487;SDS011;38546;48.170;11.724;2023-05-16T07:32:03;21.20;;;14.10;;
3487;SDS011;38546;48.170;11.724;2023-05-16T07:34:54;23.90;;;15.30;;
3487;SDS011;38546;48.170;11.724;2023-05-16T07:37:42;22.07;;;13.70;;
3487;SDS011;38546;48.170;11.724;2023-05-16T07:40:31;27.70;;;16.67;;
3487;SDS011;38546;48.170;11.724;2023-05-16T07:43:21;27.40;;;15.53;;
3487;SDS011;38546;48.170;11.724;2023-05-16T07:46:10;21.00;;;14.63;;
3487;SDS011;38546;48.170;11.724;2023-05-16T07:48:59;21.93;;;15.00;;
3487;SDS011;38546;48.170;11.724;2023-05-16T07:51:49;19.00;;;12.30;;
3487;SDS011;38546;48.170;11.724;2023-05-16T07:54:38;21.00;;;13.07;;
3487;SDS011;38546;48.170;11.724;2023-05-16T07:57:27;21.30;;;12.93;;
3487;SDS011;38546;48.170;11.724;2023-05-16T08:00:17;20.27;;;14.20;;
3487;SDS011;38546;48.170;11.724;2023-05-16T08:03:07;18.00;;;13.07;;
3487;SDS011;38546;48.170;11.724;2023-05-16T08:05:56;27.73;;;14.83;;
3487;SDS011;38546;48.170;11.724;2023-05-16T08:08:45;16.93;;;11.90;;
3487;SDS011;38546;48.170;11.724;2023-05-16T08:11:35;20.93;;;12.90;;
3487;SDS011;38546;48.170;11.724;2023-05-16T08:14:24;30.40;;;17.40;;
3487;SDS011;38546;48.170;11.724;2023-05-16T08:17:14;28.83;;;15.20;;
3487;SDS011;38546;48.170;11.724;2023-05-16T08:20:04;23.33;;;15.17;;
3487;SDS011;38546;48.170;11.724;2023-05-16T08:22:54;19.93;;;14.30;;
3487;SDS011;38546;48.170;11.724;2023-05-16T08:25:43;24.03;;;15.97;;
3487;SDS011;38546;48.170;11.724;2023-05-16T08:28:33;20.90;;;14.60;;
3487;SDS011;38546;48.170;11.724;2023-05-16T08:31:22;19.97;;;12.83;;
3487;SDS011;38546;48.170;11.724;2023-05-16T08:34:11;21.63;;;15.07;;
3487;SDS011;38546;48.170;11.724;2023-05-16T08:37:00;28.03;;;14.63;;
3487;SDS011;38546;48.170;11.724;2023-05-16T08:39:50;21.90;;;15.93;;
3487;SDS011;38546;48.170;11.724;2023-05-16T08:42:40;20.33;;;12.97;;
3487;SDS011;38546;48.170;11.724;2023-05-16T08:45:29;22.80;;;15.00;;
3487;SDS011;38546;48.170;11.724;2023-05-16T08:48:21;20.17;;;13.90;;
3487;SDS011;38546;48.170;11.724;2023-05-16T08:51:12;17.83;;;13.43;;
3487;SDS011;38546;48.170;11.724;2023-05-16T08:54:08;21.83;;;14.93;;
3487;SDS011;38546;48.170;11.724;2023-05-16T08:57:03;19.37;;;13.80;;
3487;SDS011;38546;48.170;11.724;2023-05-16T08:59:55;17.40;;;13.30;;
3487;SDS011;38546;48.170;11.724;2023-05-16T09:02:46;19.80;;;13.87;;
3487;SDS011;38546;48.170;11.724;2023-05-16T09:05:36;20.57;;;14.60;;
3487;SDS011;38546;48.170;11.724;2023-05-16T09:08:26;21.80;;;14.37;;
3487;SDS011;38546;48.170;11.724;2023-05-16T09:11:15;23.60;;;15.07;;
3487;SDS011;38546;48.170;11.724;2023-05-16T09:14:04;23.17;;;15.37;;
3487;SDS011;38546;48.170;11.724;2023-05-16T09:17:04;23.63;;;16.07;;
3487;SDS011;38546;48.170;11.724;2023-05-16T09:19:54;21.03;;;13.53;;
3487;SDS011;38546;48.170;11.724;2023-05-16T09:23:04;18.47;;;14.60;;
3487;SDS011;38546;48.170;11.724;2023-05-16T09:25:53;18.37;;;13.87;;
3487;SDS011;38546;48.170;11.724;2023-05-16T09:28:43;30.73;;;15.73;;
3487;SDS011;38546;48.170;11.724;2023-05-16T09:31:32;21.07;;;14.97;;
3487;SDS011;38546;48.170;11.724;2023-05-16T09:34:25;21.50;;;14.87;;
3487;SDS011;38546;48.170;11.724;2023-05-16T09:37:15;22.00;;;14.30;;
3487;SDS011;38546;48.170;11.724;2023-05-16T09:40:05;23.30;;;15.30;;
3487;SDS011;38546;48.170;11.724;2023-05-16T09:43:02;21.77;;;15.77;;
3487;SDS011;38546;48.170;11.724;2023-05-16T09:45:52;23.77;;;15.93;;
3487;SDS011;38546;48.170;11.724;2023-05-16T09:48:46;21.40;;;14.57;;
3487;SDS011;38546;48.170;11.724;2023-05-16T09:51:36;22.23;;;15.70;;
3487;SDS011;38546;48.170;11.724;2023-05-16T09:54:30;21.10;;;16.17;;
3487;SDS011;38546;48.170;11.724;2023-05-16T09:57:20;21.83;;;15.93;;
3487;SDS011;38546;48.170;11.724;2023-05-16T10:00:11;24.50;;;16.13;;
3487;SDS011;38546;48.170;11.724;2023-05-16T10:03:02;24.83;;;16.40;;
3487;SDS011;38546;48.170;11.724;2023-05-16T10:05:54;23.87;;;16.40;;
3487;SDS011;38546;48.170;11.724;2023-05-16T10:08:44;25.30;;;18.20;;
3487;SDS011;38546;48.170;11.724;2023-05-16T10:11:35;22.30;;;16.07;;
3487;SDS011;38546;48.170;11.724;2023-05-16T10:14:29;24.30;;;16.50;;
3487;SDS011;38546;48.170;11.724;2023-05-16T10:17:23;24.60;;;16.93;;
3487;SDS011;38546;48.170;11.724;2023-05-16T10:20:14;30.67;;;19.93;;
3487;SDS011;38546;48.170;11.724;2023-05-16T10:23:05;29.60;;;18.17;;
3487;SDS011;38546;48.170;11.724;2023-05-16T10:25:57;29.87;;;18.90;;
3487;SDS011;38546;48.170;11.724;2023-05-16T10:28:49;26.67;;;18.93;;
3487;SDS011;38546;48.170;11.724;2023-05-16T10:31:39;30.23;;;19.67;;
3487;SDS011;38546;48.170;11.724;2023-05-16T10:34:30;33.57;;;20.80;;
3487;SDS011;38546;48.170;11.724;2023-05-16T10:37:20;30.50;;;20.43;;
3487;SDS011;38546;48.170;11.724;2023-05-16T10:40:11;32.20;;;19.27;;
3487;SDS011;38546;48.170;11.724;2023-05-16T10:43:02;35.90;;;22.10;;
3487;SDS011;38546;48.170;11.724;2023-05-16T10:45:54;31.10;;;20.50;;
3487;SDS011;38546;48.170;11.724;2023-05-16T10:48:50;33.27;;;21.07;;
3487;SDS011;38546;48.170;11.724;2023-05-16T10:51:39;30.10;;;20.10;;
3487;SDS011;38546;48.170;11.724;2023-05-16T10:54:38;33.70;;;19.77;;
3487;SDS011;38546;48.170;11.724;2023-05-16T10:57:31;33.93;;;21.37;;
3487;SDS011;38546;48.170;11.724;2023-05-16T11:00:22;28.90;;;20.30;;
3487;SDS011;38546;48.170;11.724;2023-05-16T11:03:18;33.27;;;20.20;;
3487;SDS011;38546;48.170;11.724;2023-05-16T11:06:19;37.23;;;21.80;;
3487;SDS011;38546;48.170;11.724;2023-05-16T11:09:20;38.67;;;21.40;;
3487;SDS011;38546;48.170;11.724;2023-05-16T11:12:13;38.57;;;24.17;;
3487;SDS011;38546;48.170;11.724;2023-05-16T11:15:16;37.93;;;22.80;;
3487;SDS011;38546;48.170;11.724;2023-05-16T11:18:14;36.00;;;21.97;;
3487;SDS011;38546;48.170;11.724;2023-05-16T11:21:05;41.20;;;24.33;;
3487;SDS011;38546;48.170;11.724;2023-05-16T11:27:24;45.43;;;25.30;;
3487;SDS011;38546;48.170;11.724;2023-05-16T11:30:24;45.73;;;25.27;;
3487;SDS011;38546;48.170;11.724;2023-05-16T11:33:14;48.73;;;23.87;;
3487;SDS011;38546;48.170;11.724;2023-05-16T11:36:05;45.70;;;25.47;;
3487;SDS011;38546;48.170;11.724;2023-05-16T11:39:04;42.60;;;23.63;;
3487;SDS011;38546;48.170;11.724;2023-05-16T11:41:57;39.00;;;24.27;;
3487;SDS011;38546;48.170;11.724;2023-05-16T11:44:46;32.37;;;21.63;;
3487;SDS011;38546;48.170;11.724;2023-05-16T11:47:35;41.93;;;25.20;;
3487;SDS011;38546;48.170;11.724;2023-05-16T11:50:26;36.47;;;22.93;;
3487;SDS011;38546;48.170;11.724;2023-05-16T11:53:15;38.20;;;23.03;;
3487;SDS011;38546;48.170;11.724;2023-05-16T11:56:06;37.80;;;23.27;;
3487;SDS011;38546;48.170;11.724;2023-05-16T11:58:58;35.77;;;23.37;;
3487;SDS011;38546;48.170;11.724;2023-05-16T12:01:48;36.80;;;23.50;;
3487;SDS011;38546;48.170;11.724;2023-05-16T12:04:38;39.57;;;23.40;;
3487;SDS011;38546;48.170;11.724;2023-05-16T12:07:27;35.20;;;23.13;;
3487;SDS011;38546;48.170;11.724;2023-05-16T12:10:16;39.10;;;23.03;;
3487;SDS011;38546;48.170;11.724;2023-05-16T12:13:05;40.03;;;22.87;;
3487;SDS011;38546;48.170;11.724;2023-05-16T12:15:55;33.13;;;21.53;;
3487;SDS011;38546;48.170;11.724;2023-05-16T12:18:46;50.97;;;23.67;;
3487;SDS011;38546;48.170;11.724;2023-05-16T12:21:36;43.43;;;23.30;;
3487;SDS011;38546;48.170;11.724;2023-05-16T12:24:30;38.33;;;22.47;;
3487;SDS011;38546;48.170;11.724;2023-05-16T12:27:25;36.67;;;22.00;;
3487;SDS011;38546;48.170;11.724;2023-05-16T12:30:16;31.27;;;20.33;;
3487;SDS011;38546;48.170;11.724;2023-05-16T12:33:10;38.27;;;23.20;;
3487;SDS011;38546;48.170;11.724;2023-05-16T12:36:02;30.57;;;20.47;;
3487;SDS011;38546;48.170;11.724;2023-05-16T12:38:52;33.27;;;21.80;;
3487;SDS011;38546;48.170;11.724;2023-05-16T12:41:41;38.33;;;23.03;;
3487;SDS011;38546;48.170;11.724;2023-05-16T12:44:31;34.80;;;22.93;;
3487;SDS011;38546;48.170;11.724;2023-05-16T12:47:21;32.40;;;21.93;;
3487;SDS011;38546;48.170;11.724;2023-05-16T12:50:10;34.60;;;21.37;;
3487;SDS011;38546;48.170;11.724;2023-05-16T12:53:01;36.60;;;21.90;;
3487;SDS011;38546;48.170;11.724;2023-05-16T12:55:50;33.63;;;20.87;;
3487;SDS011;38546;48.170;11.724;2023-05-16T12:58:40;36.83;;;21.57;;
3487;SDS011;38546;48.170;11.724;2023-05-16T13:01:30;29.80;;;19.93;;
3487;SDS011;38546;48.170;11.724;2023-05-16T13:04:20;28.97;;;20.50;;
3487;SDS011;38546;48.170;11.724;2023-05-16T13:07:10;28.17;;;20.70;;
3487;SDS011;38546;48.170;11.724;2023-05-16T13:09:59;30.57;;;18.70;;
3487;SDS011;38546;48.170;11.724;2023-05-16T13:12:49;27.83;;;18.87;;
3487;SDS011;38546;48.170;11.724;2023-05-16T13:15:38;27.20;;;17.63;;
3487;SDS011;38546;48.170;11.724;2023-05-16T13:18:28;28.50;;;18.57;;
3487;SDS011;38546;48.170;11.724;2023-05-16T13:21:17;25.23;;;17.83;;
3487;SDS011;38546;48.170;11.724;2023-05-16T13:24:06;33.03;;;20.47;;
3487;SDS011;38546;48.170;11.724;2023-05-16T13:26:55;32.53;;;22.17;;
3487;SDS011;38546;48.170;11.724;2023-05-16T13:29:44;35.80;;;23.47;;
3487;SDS011;38546;48.170;11.724;2023-05-16T13:32:33;34.07;;;20.87;;
3487;SDS011;38546;48.170;11.724;2023-05-16T13:35:21;19.27;;;15.63;;
3487;SDS011;38546;48.170;11.724;2023-05-16T13:38:11;19.77;;;12.73;;
3487;SDS011;38546;48.170;11.724;2023-05-16T13:41:00;16.43;;;12.87;;
3487;SDS011;38546;48.170;11.724;2023-05-16T13:43:50;14.80;;;11.07;;
3487;SDS011;38546;48.170;11.724;2023-05-16T13:46:40;13.83;;;10.43;;
3487;SDS011;38546;48.170;11.724;2023-05-16T13:49:29;21.33;;;11.23;;
3487;SDS011;38546;48.170;11.724;2023-05-16T13:52:19;18.87;;;11.17;;
3487;SDS011;38546;48.170;11.724;2023-05-16T13:55:08;12.47;;;10.27;;
3487;SDS011;38546;48.170;11.724;2023-05-16T13:57:58;15.57;;;10.77;;
3487;SDS011;38546;48.170;11.724;2023-05-16T14:00:48;17.57;;;12.30;;
3487;SDS011;38546;48.170;11.724;2023-05-16T14:03:38;13.60;;;10.40;;
3487;SDS011;38546;48.170;11.724;2023-05-16T14:06:27;19.77;;;12.50;;
3487;SDS011;38546;48.170;11.724;2023-05-16T14:09:16;16.37;;;12.33;;
3487;SDS011;38546;48.170;11.724;2023-05-16T14:12:06;20.27;;;12.83;;
3487;SDS011;38546;48.170;11.724;2023-05-16T14:14:56;23.47;;;13.43;;
3487;SDS011;38546;48.170;11.724;2023-05-16T14:17:47;24.57;;;14.50;;
3487;SDS011;38546;48.170;11.724;2023-05-16T14:20:36;20.50;;;14.10;;
3487;SDS011;38546;48.170;11.724;2023-05-16T14:23:25;19.47;;;14.07;;
3487;SDS011;38546;48.170;11.724;2023-05-16T14:26:14;21.20;;;13.77;;
3487;SDS011;38546;48.170;11.724;2023-05-16T14:29:05;21.27;;;14.77;;
3487;SDS011;38546;48.170;11.724;2023-05-16T14:31:54;22.90;;;14.67;;
3487;SDS011;38546;48.170;11.724;2023-05-16T14:34:43;23.23;;;14.07;;
3487;SDS011;38546;48.170;11.724;2023-05-16T14:37:33;25.03;;;15.87;;
3487;SDS011;38546;48.170;11.724;2023-05-16T14:40:23;19.93;;;14.93;;
3487;SDS011;38546;48.170;11.724;2023-05-16T14:43:12;24.30;;;15.37;;
3487;SDS011;38546;48.170;11.724;2023-05-16T14:46:01;22.47;;;14.77;;
3487;SDS011;38546;48.170;11.724;2023-05-16T14:48:50;26.20;;;15.17;;
3487;SDS011;38546;48.170;11.724;2023-05-16T14:51:39;27.00;;;15.90;;
3487;SDS011;38546;48.170;11.724;2023-05-16T14:54:28;27.70;;;17.73;;
3487;SDS011;38546;48.170;11.724;2023-05-16T14:57:17;23.37;;;16.10;;
3487;SDS011;38546;48.170;11.724;2023-05-16T15:00:07;25.57;;;16.20;;
3487;SDS011;38546;48.170;11.724;2023-05-16T15:02:58;24.90;;;15.20;;
3487;SDS011;38546;48.170;11.724;2023-05-16T15:05:47;22.53;;;15.07;;
3487;SDS011;38546;48.170;11.724;2023-05-16T15:08:36;23.60;;;15.60;;
3487;SDS011;38546;48.170;11.724;2023-05-16T15:11:27;26.67;;;16.00;;
3487;SDS011;38546;48.170;11.724;2023-05-16T15:14:16;24.43;;;15.47;;
3487;SDS011;38546;48.170;11.724;2023-05-16T15:17:05;26.00;;;17.37;;
3487;SDS011;38546;48.170;11.724;2023-05-16T15:19:54;28.80;;;16.87;;
3487;SDS011;38546;48.170;11.724;2023-05-16T15:22:45;23.97;;;15.73;;
3487;SDS011;38546;48.170;11.724;2023-05-16T15:25:34;27.60;;;16.87;;
3487;SDS011;38546;48.170;11.724;2023-05-16T15:28:24;27.60;;;15.77;;
3487;SDS011;38546;48.170;11.724;2023-05-16T15:31:13;29.67;;;16.70;;
3487;SDS011;38546;48.170;11.724;2023-05-16T15:34:02;27.80;;;17.70;;
3487;SDS011;38546;48.170;11.724;2023-05-16T15:36:53;22.83;;;15.43;;
3487;SDS011;38546;48.170;11.724;2023-05-16T15:39:43;26.03;;;16.63;;
3487;SDS011;38546;48.170;11.724;2023-05-16T15:42:32;25.67;;;17.17;;
3487;SDS011;38546;48.170;11.724;2023-05-16T15:45:21;27.30;;;16.77;;
3487;SDS011;38546;48.170;11.724;2023-05-16T15:48:10;29.30;;;17.10;;
3487;SDS011;38546;48.170;11.724;2023-05-16T15:51:00;27.70;;;17.93;;
3487;SDS011;38546;48.170;11.724;2023-05-16T15:53:49;24.10;;;15.40;;
3487;SDS011;38546;48.170;11.724;2023-05-16T15:56:38;29.43;;;17.27;;
3487;SDS011;38546;48.170;11.724;2023-05-16T15:59:27;23.50;;;16.23;;
3487;SDS011;38546;48.170;11.724;2023-05-16T16:02:16;26.97;;;15.83;;
3487;SDS011;38546;48.170;11.724;2023-05-16T16:05:05;24.80;;;14.60;;
3487;SDS011;38546;48.170;11.724;2023-05-16T16:07:55;22.80;;;15.57;;
3487;SDS011;38546;48.170;11.724;2023-05-16T16:10:44;23.20;;;15.50;;
3487;SDS011;38546;48.170;11.724;2023-05-16T16:13:34;24.17;;;15.73;;
3487;SDS011;38546;48.170;11.724;2023-05-16T16:16:24;32.80;;;17.00;;
3487;SDS011;38546;48.170;11.724;2023-05-16T16:19:13;31.10;;;17.40;;
3487;SDS011;38546;48.170;11.724;2023-05-16T16:22:01;22.77;;;15.57;;
3487;SDS011;38546;48.170;11.724;2023-05-16T16:24:51;25.10;;;16.00;;
3487;SDS011;38546;48.170;11.724;2023-05-16T16:27:41;26.60;;;17.30;;
3487;SDS011;38546;48.170;11.724;2023-05-16T16:30:30;30.20;;;16.87;;
3487;SDS011;38546;48.170;11.724;2023-05-16T16:33:19;24.37;;;14.67;;
3487;SDS011;38546;48.170;11.724;2023-05-16T16:36:08;24.20;;;16.33;;
3487;SDS011;38546;48.170;11.724;2023-05-16T16:38:58;27.47;;;17.53;;
3487;SDS011;38546;48.170;11.724;2023-05-16T16:41:47;29.17;;;18.33;;
3487;SDS011;38546;48.170;11.724;2023-05-16T16:44:36;31.00;;;17.13;;
3487;SDS011;38546;48.170;11.724;2023-05-16T16:47:25;28.17;;;17.07;;